sensor_id;sensor_type;location;lat;lon;timestamp;temperature;humidity
11087;DHT22;5597;47.588;9.642;2023-04-01T00:01:58;8.50;99.90
11087;DHT22;5597;47.588;9.642;2023-04-01T00:04:24;8.50;99.90
11087;DHT22;5597;47.588;9.642;2023-04-01T00:06:50;8.50;99.90
11087;DHT22;5597;47.588;9.642;2023-04-01T00:09:17;8.50;99.90
11087;DHT22;5597;47.588;9.642;2023-04-01T00:11:43;8.50;99.90
11087;DHT22;5597;47.588;9.642;2023-04-01T00:14:10;8.50;99.90
11087;DHT22;5597;47.588;9.642;2023-04-01T00:16:36;8.50;99.90
11087;DHT22;5597;47.588;9.642;2023-04-01T00:19:01;8.40;99.90
11087;DHT22;5597;47.588;9.642;2023-04-01T00:21:27;8.40;99.90
11087;DHT22;5597;47.588;9.642;2023-04-01T00:23:53;8.40;99.90
11087;DHT22;5597;47.588;9.642;2023-04-01T00:26:19;8.50;99.90
11087;DHT22;5597;47.588;9.642;2023-04-01T00:28:55;8.40;99.90
11087;DHT22;5597;47.588;9.642;2023-04-01T00:31:20;8.50;99.90
11087;DHT22;5597;47.588;9.642;2023-04-01T00:33:46;8.40;99.90
11087;DHT22;5597;47.588;9.642;2023-04-01T00:36:14;8.40;99.90
11087;DHT22;5597;47.588;9.642;2023-04-01T00:38:41;8.40;99.90
11087;DHT22;5597;47.588;9.642;2023-04-01T00:41:08;8.40;99.90
11087;DHT22;5597;47.588;9.642;2023-04-01T00:43:36;8.40;99.90
11087;DHT22;5597;47.588;9.642;2023-04-01T00:46:02;8.40;99.90
11087;DHT22;5597;47.588;9.642;2023-04-01T00:48:34;8.40;99.90
11087;DHT22;5597;47.588;9.642;2023-04-01T00:51:07;8.40;99.90
11087;DHT22;5597;47.588;9.642;2023-04-01T00:53:38;8.40;99.90
11087;DHT22;5597;47.588;9.642;2023-04-01T00:56:26;8.40;99.90
11087;DHT22;5597;47.588;9.642;2023-04-01T00:59:14;8.40;99.90
11087;DHT22;5597;47.588;9.642;2023-04-01T01:01:41;8.40;99.90
11087;DHT22;5597;47.588;9.642;2023-04-01T01:10:53;8.50;99.90
11087;DHT22;5597;47.588;9.642;2023-04-01T01:12:53;8.50;99.90
11087;DHT22;5597;47.588;9.642;2023-04-01T01:15:28;8.50;99.90
11087;DHT22;5597;47.588;9.642;2023-04-01T01:18:30;8.40;99.90
11087;DHT22;5597;47.588;9.642;2023-04-01T01:35:31;8.30;99.90
11087;DHT22;5597;47.588;9.642;2023-04-01T01:38:02;8.30;99.90
11087;DHT22;5597;47.588;9.642;2023-04-01T01:40:30;8.20;99.90
11087;DHT22;5597;47.588;9.642;2023-04-01T01:43:00;8.10;99.90
11087;DHT22;5597;47.588;9.642;2023-04-01T01:47:58;8.00;99.90
11087;DHT22;5597;47.588;9.642;2023-04-01T01:50:25;7.90;99.90
11087;DHT22;5597;47.588;9.642;2023-04-01T01:53:06;7.90;99.90
11087;DHT22;5597;47.588;9.642;2023-04-01T01:55:38;7.80;99.90
11087;DHT22;5597;47.588;9.642;2023-04-01T01:58:23;7.70;99.90
11087;DHT22;5597;47.588;9.642;2023-04-01T02:00:54;7.70;99.90
11087;DHT22;5597;47.588;9.642;2023-04-01T02:03:22;7.70;99.90
11087;DHT22;5597;47.588;9.642;2023-04-01T02:05:50;7.70;99.90
11087;DHT22;5597;47.588;9.642;2023-04-01T02:08:25;7.60;99.90
11087;DHT22;5597;47.588;9.642;2023-04-01T02:11:05;7.60;99.90
11087;DHT22;5597;47.588;9.642;2023-04-01T02:13:38;7.60;99.90
11087;DHT22;5597;47.588;9.642;2023-04-01T02:16:19;7.60;99.90
11087;DHT22;5597;47.588;9.642;2023-04-01T02:18:48;7.60;99.90
11087;DHT22;5597;47.588;9.642;2023-04-01T02:21:17;7.70;99.90
11087;DHT22;5597;47.588;9.642;2023-04-01T02:23:45;7.70;99.90
11087;DHT22;5597;47.588;9.642;2023-04-01T02:26:12;7.70;99.90
11087;DHT22;5597;47.588;9.642;2023-04-01T02:28:39;7.70;99.90
11087;DHT22;5597;47.588;9.642;2023-04-01T02:31:07;7.70;99.90
11087;DHT22;5597;47.588;9.642;2023-04-01T02:33:34;7.80;99.90
11087;DHT22;5597;47.588;9.642;2023-04-01T02:36:00;7.80;99.90
11087;DHT22;5597;47.588;9.642;2023-04-01T02:38:25;7.80;99.90
11087;DHT22;5597;47.588;9.642;2023-04-01T02:40:57;7.80;99.90
11087;DHT22;5597;47.588;9.642;2023-04-01T02:43:24;7.90;99.90
11087;DHT22;5597;47.588;9.642;2023-04-01T02:45:49;7.90;99.90
11087;DHT22;5597;47.588;9.642;2023-04-01T02:48:15;7.90;99.90
11087;DHT22;5597;47.588;9.642;2023-04-01T02:50:41;8.00;99.90
11087;DHT22;5597;47.588;9.642;2023-04-01T02:53:06;8.00;99.90
11087;DHT22;5597;47.588;9.642;2023-04-01T02:55:33;8.00;99.90
11087;DHT22;5597;47.588;9.642;2023-04-01T02:57:59;8.00;99.90
11087;DHT22;5597;47.588;9.642;2023-04-01T03:00:25;8.00;99.90
11087;DHT22;5597;47.588;9.642;2023-04-01T03:02:51;8.00;99.90
11087;DHT22;5597;47.588;9.642;2023-04-01T03:05:17;8.00;99.90
11087;DHT22;5597;47.588;9.642;2023-04-01T03:07:42;8.00;99.90
11087;DHT22;5597;47.588;9.642;2023-04-01T03:10:08;8.10;99.90
11087;DHT22;5597;47.588;9.642;2023-04-01T03:12:34;8.10;99.90
11087;DHT22;5597;47.588;9.642;2023-04-01T03:15:00;8.10;99.90
11087;DHT22;5597;47.588;9.642;2023-04-01T03:17:26;8.10;99.90
11087;DHT22;5597;47.588;9.642;2023-04-01T03:19:51;8.10;99.90
11087;DHT22;5597;47.588;9.642;2023-04-01T03:22:17;8.10;99.90
11087;DHT22;5597;47.588;9.642;2023-04-01T03:24:49;8.10;99.90
11087;DHT22;5597;47.588;9.642;2023-04-01T03:27:14;8.10;99.90
11087;DHT22;5597;47.588;9.642;2023-04-01T03:29:40;8.10;99.90
11087;DHT22;5597;47.588;9.642;2023-04-01T03:32:06;8.00;99.90
11087;DHT22;5597;47.588;9.642;2023-04-01T03:34:31;8.00;99.90
11087;DHT22;5597;47.588;9.642;2023-04-01T03:36:57;8.00;99.90
11087;DHT22;5597;47.588;9.642;2023-04-01T03:39:23;8.00;99.90
11087;DHT22;5597;47.588;9.642;2023-04-01T03:41:49;8.00;99.90
11087;DHT22;5597;47.588;9.642;2023-04-01T03:44:15;8.00;99.90
11087;DHT22;5597;47.588;9.642;2023-04-01T03:46:41;8.00;99.90
11087;DHT22;5597;47.588;9.642;2023-04-01T03:49:07;8.00;99.90
11087;DHT22;5597;47.588;9.642;2023-04-01T03:51:41;8.00;99.90
11087;DHT22;5597;47.588;9.642;2023-04-01T03:54:08;8.00;99.90
11087;DHT22;5597;47.588;9.642;2023-04-01T03:56:34;8.00;99.90
11087;DHT22;5597;47.588;9.642;2023-04-01T03:59:02;8.00;99.90
11087;DHT22;5597;47.588;9.642;2023-04-01T04:01:29;8.00;99.90
11087;DHT22;5597;47.588;9.642;2023-04-01T04:03:55;8.10;99.90
11087;DHT22;5597;47.588;9.642;2023-04-01T04:06:22;8.10;99.90
11087;DHT22;5597;47.588;9.642;2023-04-01T04:08:48;8.10;99.90
11087;DHT22;5597;47.588;9.642;2023-04-01T04:11:14;8.10;99.90
11087;DHT22;5597;47.588;9.642;2023-04-01T04:13:40;8.10;99.90
11087;DHT22;5597;47.588;9.642;2023-04-01T04:16:06;8.10;99.90
11087;DHT22;5597;47.588;9.642;2023-04-01T04:18:32;8.10;99.90
11087;DHT22;5597;47.588;9.642;2023-04-01T04:20:58;8.10;99.90
11087;DHT22;5597;47.588;9.642;2023-04-01T04:23:23;8.10;99.90
11087;DHT22;5597;47.588;9.642;2023-04-01T04:26:04;8.10;99.90
11087;DHT22;5597;47.588;9.642;2023-04-01T04:28:30;8.10;99.90
11087;DHT22;5597;47.588;9.642;2023-04-01T04:30:57;8.00;99.90
11087;DHT22;5597;47.588;9.642;2023-04-01T04:33:23;8.00;99.90
11087;DHT22;5597;47.588;9.642;2023-04-01T04:35:49;8.00;99.90
11087;DHT22;5597;47.588;9.642;2023-04-01T04:38:15;8.00;99.90
11087;DHT22;5597;47.588;9.642;2023-04-01T04:40:42;8.00;99.90
11087;DHT22;5597;47.588;9.642;2023-04-01T04:43:12;8.00;99.90
11087;DHT22;5597;47.588;9.642;2023-04-01T04:45:38;8.00;99.90
11087;DHT22;5597;47.588;9.642;2023-04-01T04:48:03;8.00;99.90
11087;DHT22;5597;47.588;9.642;2023-04-01T04:50:29;8.00;99.90
11087;DHT22;5597;47.588;9.642;2023-04-01T04:52:55;8.00;99.90
11087;DHT22;5597;47.588;9.642;2023-04-01T04:55:21;7.90;99.90
11087;DHT22;5597;47.588;9.642;2023-04-01T04:57:46;7.90;99.90
11087;DHT22;5597;47.588;9.642;2023-04-01T05:00:12;7.90;99.90
11087;DHT22;5597;47.588;9.642;2023-04-01T05:02:38;7.90;99.90
11087;DHT22;5597;47.588;9.642;2023-04-01T05:05:04;7.90;99.90
11087;DHT22;5597;47.588;9.642;2023-04-01T05:07:30;7.90;99.90
11087;DHT22;5597;47.588;9.642;2023-04-01T05:09:56;8.00;99.90
11087;DHT22;5597;47.588;9.642;2023-04-01T05:12:21;8.00;99.90
11087;DHT22;5597;47.588;9.642;2023-04-01T05:14:47;8.10;99.90
11087;DHT22;5597;47.588;9.642;2023-04-01T05:17:13;8.10;99.90
11087;DHT22;5597;47.588;9.642;2023-04-01T05:19:39;8.10;99.90
11087;DHT22;5597;47.588;9.642;2023-04-01T05:22:06;8.10;99.90
11087;DHT22;5597;47.588;9.642;2023-04-01T05:24:32;8.10;99.90
11087;DHT22;5597;47.588;9.642;2023-04-01T05:26:58;8.00;99.90
11087;DHT22;5597;47.588;9.642;2023-04-01T05:29:25;8.00;99.90
11087;DHT22;5597;47.588;9.642;2023-04-01T05:31:50;8.00;99.90
11087;DHT22;5597;47.588;9.642;2023-04-01T05:34:16;7.90;99.90
11087;DHT22;5597;47.588;9.642;2023-04-01T05:36:43;7.90;99.90
11087;DHT22;5597;47.588;9.642;2023-04-01T05:39:09;7.90;99.90
11087;DHT22;5597;47.588;9.642;2023-04-01T05:41:35;7.90;99.90
11087;DHT22;5597;47.588;9.642;2023-04-01T05:44:02;7.90;99.90
11087;DHT22;5597;47.588;9.642;2023-04-01T05:46:27;7.90;99.90
11087;DHT22;5597;47.588;9.642;2023-04-01T05:48:53;7.90;99.90
11087;DHT22;5597;47.588;9.642;2023-04-01T05:51:19;7.90;99.90
11087;DHT22;5597;47.588;9.642;2023-04-01T05:53:45;7.90;99.90
11087;DHT22;5597;47.588;9.642;2023-04-01T05:56:10;7.90;99.90
11087;DHT22;5597;47.588;9.642;2023-04-01T05:58:36;7.90;99.90
11087;DHT22;5597;47.588;9.642;2023-04-01T06:01:07;8.00;99.90
11087;DHT22;5597;47.588;9.642;2023-04-01T06:03:33;8.00;99.90
11087;DHT22;5597;47.588;9.642;2023-04-01T06:05:59;8.00;99.90
11087;DHT22;5597;47.588;9.642;2023-04-01T06:08:27;8.10;99.90
11087;DHT22;5597;47.588;9.642;2023-04-01T06:11:16;8.10;99.90
11087;DHT22;5597;47.588;9.642;2023-04-01T06:25:24;8.20;99.90
11087;DHT22;5597;47.588;9.642;2023-04-01T06:28:26;8.30;99.90
11087;DHT22;5597;47.588;9.642;2023-04-01T06:31:12;8.30;99.90
11087;DHT22;5597;47.588;9.642;2023-04-01T06:36:50;8.40;99.90
11087;DHT22;5597;47.588;9.642;2023-04-01T06:48:02;8.50;99.90
11087;DHT22;5597;47.588;9.642;2023-04-01T06:50:47;8.60;99.90
11087;DHT22;5597;47.588;9.642;2023-04-01T06:53:24;8.70;99.90
11087;DHT22;5597;47.588;9.642;2023-04-01T06:56:05;8.70;99.90
11087;DHT22;5597;47.588;9.642;2023-04-01T06:58:41;8.80;99.90
11087;DHT22;5597;47.588;9.642;2023-04-01T07:01:12;8.90;99.90
11087;DHT22;5597;47.588;9.642;2023-04-01T07:03:43;9.00;99.90
11087;DHT22;5597;47.588;9.642;2023-04-01T07:06:28;9.00;99.90
11087;DHT22;5597;47.588;9.642;2023-04-01T07:08:59;9.10;99.90
11087;DHT22;5597;47.588;9.642;2023-04-01T07:11:34;9.20;99.90
11087;DHT22;5597;47.588;9.642;2023-04-01T07:14:35;9.20;99.90
11087;DHT22;5597;47.588;9.642;2023-04-01T07:17:04;9.30;99.90
11087;DHT22;5597;47.588;9.642;2023-04-01T07:19:36;9.40;99.90
11087;DHT22;5597;47.588;9.642;2023-04-01T07:22:31;9.40;99.90
11087;DHT22;5597;47.588;9.642;2023-04-01T07:25:02;9.40;99.90
11087;DHT22;5597;47.588;9.642;2023-04-01T07:27:30;9.40;99.90
11087;DHT22;5597;47.588;9.642;2023-04-01T07:29:57;9.50;99.90
11087;DHT22;5597;47.588;9.642;2023-04-01T07:32:39;9.50;99.90
11087;DHT22;5597;47.588;9.642;2023-04-01T07:43:25;9.70;99.90
11087;DHT22;5597;47.588;9.642;2023-04-01T07:48:53;9.90;99.90
11087;DHT22;5597;47.588;9.642;2023-04-01T07:51:21;10.00;99.90
11087;DHT22;5597;47.588;9.642;2023-04-01T07:59:29;10.30;99.90
11087;DHT22;5597;47.588;9.642;2023-04-01T08:02:07;10.40;99.90
11087;DHT22;5597;47.588;9.642;2023-04-01T08:07:12;10.50;99.90
11087;DHT22;5597;47.588;9.642;2023-04-01T08:09:49;10.50;99.90
11087;DHT22;5597;47.588;9.642;2023-04-01T08:12:31;10.60;99.90
11087;DHT22;5597;47.588;9.642;2023-04-01T08:18:29;10.60;99.90
11087;DHT22;5597;47.588;9.642;2023-04-01T08:21:02;10.60;99.90
11087;DHT22;5597;47.588;9.642;2023-04-01T08:23:32;10.60;99.90
11087;DHT22;5597;47.588;9.642;2023-04-01T08:28:59;10.70;99.90
11087;DHT22;5597;47.588;9.642;2023-04-01T08:34:47;10.60;99.90
11087;DHT22;5597;47.588;9.642;2023-04-01T08:37:30;10.60;99.90
11087;DHT22;5597;47.588;9.642;2023-04-01T08:40:01;10.50;99.90
11087;DHT22;5597;47.588;9.642;2023-04-01T08:51:43;10.40;99.90
11087;DHT22;5597;47.588;9.642;2023-04-01T09:00:31;10.20;99.90
11087;DHT22;5597;47.588;9.642;2023-04-01T09:03:27;10.20;99.90
11087;DHT22;5597;47.588;9.642;2023-04-01T09:09:14;10.30;99.90
11087;DHT22;5597;47.588;9.642;2023-04-01T09:24:17;10.30;99.90
11087;DHT22;5597;47.588;9.642;2023-04-01T09:30:06;10.20;99.90
11087;DHT22;5597;47.588;9.642;2023-04-01T09:40:16;10.10;99.90
11087;DHT22;5597;47.588;9.642;2023-04-01T09:42:49;10.10;99.90
11087;DHT22;5597;47.588;9.642;2023-04-01T09:48:40;10.00;99.90
11087;DHT22;5597;47.588;9.642;2023-04-01T10:16:03;9.60;99.90
11087;DHT22;5597;47.588;9.642;2023-04-01T10:35:20;9.50;99.90
11087;DHT22;5597;47.588;9.642;2023-04-01T10:54:57;9.70;99.90
11087;DHT22;5597;47.588;9.642;2023-04-01T11:00:18;9.80;99.90
11087;DHT22;5597;47.588;9.642;2023-04-01T11:13:54;10.20;99.90
11087;DHT22;5597;47.588;9.642;2023-04-01T11:22:32;10.30;99.90
11087;DHT22;5597;47.588;9.642;2023-04-01T11:25:23;10.30;99.90
11087;DHT22;5597;47.588;9.642;2023-04-01T11:31:16;10.30;99.90
11087;DHT22;5597;47.588;9.642;2023-04-01T11:34:01;10.30;99.90
11087;DHT22;5597;47.588;9.642;2023-04-01T11:39:24;10.20;99.90
11087;DHT22;5597;47.588;9.642;2023-04-01T11:44:29;10.20;99.90
11087;DHT22;5597;47.588;9.642;2023-04-01T11:55:05;10.20;99.90
11087;DHT22;5597;47.588;9.642;2023-04-01T12:00:41;10.10;99.90
11087;DHT22;5597;47.588;9.642;2023-04-01T12:03:27;10.10;99.90
11087;DHT22;5597;47.588;9.642;2023-04-01T12:22:43;10.60;99.90
11087;DHT22;5597;47.588;9.642;2023-04-01T12:28:18;10.60;99.90
11087;DHT22;5597;47.588;9.642;2023-04-01T12:33:42;10.60;99.90
11087;DHT22;5597;47.588;9.642;2023-04-01T12:36:40;10.60;99.90
11087;DHT22;5597;47.588;9.642;2023-04-01T12:55:42;10.40;99.90
11087;DHT22;5597;47.588;9.642;2023-04-01T13:14:57;10.20;99.90
11087;DHT22;5597;47.588;9.642;2023-04-01T13:18:11;10.20;99.90
11087;DHT22;5597;47.588;9.642;2023-04-01T13:21:12;10.30;99.90
11087;DHT22;5597;47.588;9.642;2023-04-01T13:23:35;10.40;99.90
11087;DHT22;5597;47.588;9.642;2023-04-01T13:26:27;10.50;99.90
11087;DHT22;5597;47.588;9.642;2023-04-01T13:29:03;10.60;99.90
11087;DHT22;5597;47.588;9.642;2023-04-01T13:31:47;10.70;99.90
11087;DHT22;5597;47.588;9.642;2023-04-01T13:34:39;10.80;99.90
11087;DHT22;5597;47.588;9.642;2023-04-01T13:43:10;10.80;99.90
11087;DHT22;5597;47.588;9.642;2023-04-01T13:48:40;10.70;99.90
11087;DHT22;5597;47.588;9.642;2023-04-01T13:54:28;10.60;99.90
11087;DHT22;5597;47.588;9.642;2023-04-01T13:57:31;10.20;99.90
11087;DHT22;5597;47.588;9.642;2023-04-01T14:00:16;9.90;99.90
11087;DHT22;5597;47.588;9.642;2023-04-01T14:08:41;9.70;99.90
11087;DHT22;5597;47.588;9.642;2023-04-01T14:20:01;10.10;99.90
11087;DHT22;5597;47.588;9.642;2023-04-01T14:29:04;10.30;99.90
11087;DHT22;5597;47.588;9.642;2023-04-01T14:31:39;10.40;99.90
11087;DHT22;5597;47.588;9.642;2023-04-01T14:37:07;10.50;99.90
11087;DHT22;5597;47.588;9.642;2023-04-01T14:48:38;10.60;99.90
11087;DHT22;5597;47.588;9.642;2023-04-01T14:51:19;10.50;99.90
11087;DHT22;5597;47.588;9.642;2023-04-01T14:54:13;10.50;99.90
11087;DHT22;5597;47.588;9.642;2023-04-01T14:57:01;10.50;99.90
11087;DHT22;5597;47.588;9.642;2023-04-01T14:59:28;10.50;99.90
11087;DHT22;5597;47.588;9.642;2023-04-01T15:16:19;10.80;99.90
11087;DHT22;5597;47.588;9.642;2023-04-01T15:24:21;10.70;99.90
11087;DHT22;5597;47.588;9.642;2023-04-01T15:32:08;10.70;99.90
11087;DHT22;5597;47.588;9.642;2023-04-01T15:34:59;10.60;99.90
11087;DHT22;5597;47.588;9.642;2023-04-01T15:37:41;10.60;99.90
11087;DHT22;5597;47.588;9.642;2023-04-01T15:40:27;10.50;99.90
11087;DHT22;5597;47.588;9.642;2023-04-01T16:00:25;10.20;99.90
11087;DHT22;5597;47.588;9.642;2023-04-01T16:19:39;9.30;99.90
11087;DHT22;5597;47.588;9.642;2023-04-01T16:24:49;9.30;99.90
11087;DHT22;5597;47.588;9.642;2023-04-01T16:30:00;9.30;99.90
11087;DHT22;5597;47.588;9.642;2023-04-01T16:32:34;9.30;99.90
11087;DHT22;5597;47.588;9.642;2023-04-01T16:35:22;9.30;99.90
11087;DHT22;5597;47.588;9.642;2023-04-01T16:37:58;9.30;99.90
11087;DHT22;5597;47.588;9.642;2023-04-01T16:43:26;9.20;99.90
11087;DHT22;5597;47.588;9.642;2023-04-01T16:46:32;9.30;99.90
11087;DHT22;5597;47.588;9.642;2023-04-01T16:51:48;9.20;99.90
11087;DHT22;5597;47.588;9.642;2023-04-01T16:57:12;9.20;99.90
11087;DHT22;5597;47.588;9.642;2023-04-01T17:02:17;9.10;99.90
11087;DHT22;5597;47.588;9.642;2023-04-01T17:04:56;9.10;99.90
11087;DHT22;5597;47.588;9.642;2023-04-01T17:13:40;9.10;99.90
11087;DHT22;5597;47.588;9.642;2023-04-01T17:19:36;9.10;99.90
11087;DHT22;5597;47.588;9.642;2023-04-01T17:22:21;9.00;99.90
11087;DHT22;5597;47.588;9.642;2023-04-01T17:25:15;9.00;99.90
11087;DHT22;5597;47.588;9.642;2023-04-01T17:27:51;9.00;99.90
11087;DHT22;5597;47.588;9.642;2023-04-01T17:36:13;8.80;99.90
11087;DHT22;5597;47.588;9.642;2023-04-01T17:39:02;8.70;99.90
11087;DHT22;5597;47.588;9.642;2023-04-01T17:44:26;8.60;99.90
11087;DHT22;5597;47.588;9.642;2023-04-01T17:52:38;8.50;99.90
11087;DHT22;5597;47.588;9.642;2023-04-01T18:01:21;8.20;99.90
11087;DHT22;5597;47.588;9.642;2023-04-01T18:10:05;8.00;99.90
11087;DHT22;5597;47.588;9.642;2023-04-01T18:15:32;7.90;99.90
11087;DHT22;5597;47.588;9.642;2023-04-01T18:21:01;7.90;99.90
11087;DHT22;5597;47.588;9.642;2023-04-01T18:23:35;7.90;99.90
11087;DHT22;5597;47.588;9.642;2023-04-01T18:26:10;7.90;99.90
11087;DHT22;5597;47.588;9.642;2023-04-01T18:31:20;8.00;99.90
11087;DHT22;5597;47.588;9.642;2023-04-01T18:37:19;8.10;99.90
11087;DHT22;5597;47.588;9.642;2023-04-01T18:39:53;8.10;99.90
11087;DHT22;5597;47.588;9.642;2023-04-01T18:42:29;8.20;99.90
11087;DHT22;5597;47.588;9.642;2023-04-01T18:50:51;8.20;99.90
11087;DHT22;5597;47.588;9.642;2023-04-01T19:01:25;8.10;99.90
11087;DHT22;5597;47.588;9.642;2023-04-01T19:09:24;8.10;99.90
11087;DHT22;5597;47.588;9.642;2023-04-01T19:26:44;8.10;99.90
11087;DHT22;5597;47.588;9.642;2023-04-01T19:32:08;8.00;99.90
11087;DHT22;5597;47.588;9.642;2023-04-01T19:35:09;8.00;99.90
11087;DHT22;5597;47.588;9.642;2023-04-01T19:37:54;8.00;99.90
11087;DHT22;5597;47.588;9.642;2023-04-01T19:40:38;8.00;99.90
11087;DHT22;5597;47.588;9.642;2023-04-01T19:43:44;8.00;99.90
11087;DHT22;5597;47.588;9.642;2023-04-01T19:49:01;8.00;99.90
11087;DHT22;5597;47.588;9.642;2023-04-01T19:52:19;8.00;99.90
11087;DHT22;5597;47.588;9.642;2023-04-01T19:54:41;8.00;99.90
11087;DHT22;5597;47.588;9.642;2023-04-01T20:00:34;7.90;99.90
11087;DHT22;5597;47.588;9.642;2023-04-01T20:06:02;8.00;99.90
11087;DHT22;5597;47.588;9.642;2023-04-01T20:08:58;7.90;99.90
11087;DHT22;5597;47.588;9.642;2023-04-01T20:12:24;7.90;99.90
11087;DHT22;5597;47.588;9.642;2023-04-01T20:14:58;7.90;99.90
11087;DHT22;5597;47.588;9.642;2023-04-01T20:20:26;7.80;99.90
11087;DHT22;5597;47.588;9.642;2023-04-01T20:44:56;7.60;99.90
11087;DHT22;5597;47.588;9.642;2023-04-01T20:50:51;7.60;99.90
11087;DHT22;5597;47.588;9.642;2023-04-01T20:53:28;7.60;99.90
11087;DHT22;5597;47.588;9.642;2023-04-01T20:56:15;7.60;99.90
11087;DHT22;5597;47.588;9.642;2023-04-01T21:06:36;7.50;99.90
11087;DHT22;5597;47.588;9.642;2023-04-01T21:14:33;7.40;99.90
11087;DHT22;5597;47.588;9.642;2023-04-01T21:17:33;7.40;99.90
11087;DHT22;5597;47.588;9.642;2023-04-01T21:26:09;7.40;99.90
11087;DHT22;5597;47.588;9.642;2023-04-01T21:28:59;7.30;99.90
11087;DHT22;5597;47.588;9.642;2023-04-01T21:34:42;7.30;99.90
11087;DHT22;5597;47.588;9.642;2023-04-01T22:04:07;7.20;99.90
11087;DHT22;5597;47.588;9.642;2023-04-01T22:07:03;7.10;99.90
11087;DHT22;5597;47.588;9.642;2023-04-01T22:18:11;7.20;99.90
11087;DHT22;5597;47.588;9.642;2023-04-01T22:20:56;7.10;99.90
11087;DHT22;5597;47.588;9.642;2023-04-01T22:31:19;7.10;99.90
11087;DHT22;5597;47.588;9.642;2023-04-01T22:36:57;7.10;99.90
11087;DHT22;5597;47.588;9.642;2023-04-01T22:39:37;7.10;99.90
11087;DHT22;5597;47.588;9.642;2023-04-01T22:42:44;7.10;99.90
11087;DHT22;5597;47.588;9.642;2023-04-01T22:50:32;7.10;99.90
11087;DHT22;5597;47.588;9.642;2023-04-01T22:53:17;7.10;99.90
11087;DHT22;5597;47.588;9.642;2023-04-01T22:55:46;7.10;99.90
11087;DHT22;5597;47.588;9.642;2023-04-01T22:58:17;7.10;99.90
11087;DHT22;5597;47.588;9.642;2023-04-01T23:00:56;7.10;99.90
11087;DHT22;5597;47.588;9.642;2023-04-01T23:03:29;7.10;99.90
11087;DHT22;5597;47.588;9.642;2023-04-01T23:06:01;7.10;99.90
11087;DHT22;5597;47.588;9.642;2023-04-01T23:11:49;7.00;99.90
11087;DHT22;5597;47.588;9.642;2023-04-01T23:14:27;7.00;99.90
11087;DHT22;5597;47.588;9.642;2023-04-01T23:17:25;7.00;99.90
11087;DHT22;5597;47.588;9.642;2023-04-01T23:20:32;7.00;99.90
11087;DHT22;5597;47.588;9.642;2023-04-01T23:23:17;7.00;99.90
11087;DHT22;5597;47.588;9.642;2023-04-01T23:26:02;6.90;99.90
11087;DHT22;5597;47.588;9.642;2023-04-01T23:31:27;6.90;99.90
11087;DHT22;5597;47.588;9.642;2023-04-01T23:33:58;6.90;99.90
11087;DHT22;5597;47.588;9.642;2023-04-01T23:36:25;6.90;99.90
11087;DHT22;5597;47.588;9.642;2023-04-01T23:38:51;6.90;99.90
11087;DHT22;5597;47.588;9.642;2023-04-01T23:41:26;7.00;99.90
11087;DHT22;5597;47.588;9.642;2023-04-01T23:44:13;7.00;99.90
11087;DHT22;5597;47.588;9.642;2023-04-01T23:46:42;6.90;99.90
11087;DHT22;5597;47.588;9.642;2023-04-01T23:49:14;6.90;99.90
11087;DHT22;5597;47.588;9.642;2023-04-01T23:51:59;6.90;99.90
11087;DHT22;5597;47.588;9.642;2023-04-01T23:54:33;6.90;99.90
11087;DHT22;5597;47.588;9.642;2023-04-01T23:56:59;6.90;99.90
11087;DHT22;5597;47.588;9.642;2023-04-01T23:59:32;6.90;99.90
